sensor_id;sensor_type;location;lat;lon;timestamp;P1;durP1;ratioP1;P2;durP2;ratioP2
31652;SDS011;18261;53.648;9.910;2024-02-26T00:01:42;14.18;;;9.55;;
31652;SDS011;18261;53.648;9.910;2024-02-26T00:04:11;18.10;;;10.88;;
31652;SDS011;18261;53.648;9.910;2024-02-26T00:06:38;21.67;;;11.20;;
31652;SDS011;18261;53.648;9.910;2024-02-26T00:09:06;15.35;;;10.10;;
31652;SDS011;18261;53.648;9.910;2024-02-26T00:11:33;17.95;;;10.43;;
31652;SDS011;18261;53.648;9.910;2024-02-26T00:13:58;15.57;;;10.38;;
31652;SDS011;18261;53.648;9.910;2024-02-26T00:16:24;14.88;;;9.77;;
31652;SDS011;18261;53.648;9.910;2024-02-26T00:18:50;15.93;;;9.93;;
31652;SDS011;18261;53.648;9.910;2024-02-26T00:21:16;15.32;;;10.43;;
31652;SDS011;18261;53.648;9.910;2024-02-26T00:23:43;18.20;;;10.10;;
31652;SDS011;18261;53.648;9.910;2024-02-26T00:26:09;15.50;;;10.05;;
31652;SDS011;18261;53.648;9.910;2024-02-26T00:28:36;16.85;;;10.57;;
31652;SDS011;18261;53.648;9.910;2024-02-26T00:31:02;13.50;;;9.13;;
31652;SDS011;18261;53.648;9.910;2024-02-26T00:33:28;16.35;;;9.23;;
31652;SDS011;18261;53.648;9.910;2024-02-26T00:35:54;16.48;;;10.50;;
31652;SDS011;18261;53.648;9.910;2024-02-26T00:38:20;16.45;;;10.38;;
31652;SDS011;18261;53.648;9.910;2024-02-26T00:40:46;17.73;;;10.73;;
31652;SDS011;18261;53.648;9.910;2024-02-26T00:43:12;13.93;;;9.55;;
31652;SDS011;18261;53.648;9.910;2024-02-26T00:45:38;14.90;;;9.55;;
31652;SDS011;18261;53.648;9.910;2024-02-26T00:48:04;14.52;;;9.63;;
31652;SDS011;18261;53.648;9.910;2024-02-26T00:50:36;14.77;;;9.57;;
31652;SDS011;18261;53.648;9.910;2024-02-26T00:53:02;13.15;;;9.18;;
31652;SDS011;18261;53.648;9.910;2024-02-26T00:55:28;14.05;;;9.10;;
31652;SDS011;18261;53.648;9.910;2024-02-26T00:57:54;13.70;;;9.07;;
31652;SDS011;18261;53.648;9.910;2024-02-26T01:00:20;11.52;;;8.30;;
31652;SDS011;18261;53.648;9.910;2024-02-26T01:02:46;12.88;;;7.18;;
31652;SDS011;18261;53.648;9.910;2024-02-26T01:05:13;13.90;;;9.55;;
31652;SDS011;18261;53.648;9.910;2024-02-26T01:07:39;13.82;;;8.65;;
31652;SDS011;18261;53.648;9.910;2024-02-26T01:10:05;16.15;;;10.43;;
31652;SDS011;18261;53.648;9.910;2024-02-26T01:12:32;17.70;;;10.48;;
31652;SDS011;18261;53.648;9.910;2024-02-26T01:14:59;15.65;;;10.77;;
31652;SDS011;18261;53.648;9.910;2024-02-26T01:17:24;11.90;;;8.45;;
31652;SDS011;18261;53.648;9.910;2024-02-26T01:19:50;11.13;;;8.18;;
31652;SDS011;18261;53.648;9.910;2024-02-26T01:22:18;11.07;;;7.85;;
31652;SDS011;18261;53.648;9.910;2024-02-26T01:24:44;11.88;;;7.95;;
31652;SDS011;18261;53.648;9.910;2024-02-26T01:27:10;9.45;;;7.20;;
31652;SDS011;18261;53.648;9.910;2024-02-26T01:29:37;10.55;;;7.30;;
31652;SDS011;18261;53.648;9.910;2024-02-26T01:32:03;13.60;;;8.13;;
31652;SDS011;18261;53.648;9.910;2024-02-26T01:34:30;11.75;;;8.00;;
31652;SDS011;18261;53.648;9.910;2024-02-26T01:36:56;13.02;;;8.02;;
31652;SDS011;18261;53.648;9.910;2024-02-26T01:39:22;12.15;;;8.43;;
31652;SDS011;18261;53.648;9.910;2024-02-26T01:41:48;11.90;;;8.63;;
31652;SDS011;18261;53.648;9.910;2024-02-26T01:44:14;12.48;;;8.70;;
31652;SDS011;18261;53.648;9.910;2024-02-26T01:46:40;14.10;;;9.40;;
31652;SDS011;18261;53.648;9.910;2024-02-26T01:49:07;11.55;;;8.52;;
31652;SDS011;18261;53.648;9.910;2024-02-26T01:51:34;15.20;;;9.63;;
31652;SDS011;18261;53.648;9.910;2024-02-26T01:54:01;14.40;;;9.75;;
31652;SDS011;18261;53.648;9.910;2024-02-26T01:56:28;14.35;;;9.85;;
31652;SDS011;18261;53.648;9.910;2024-02-26T01:58:57;15.80;;;10.43;;
31652;SDS011;18261;53.648;9.910;2024-02-26T02:01:25;16.38;;;11.93;;
31652;SDS011;18261;53.648;9.910;2024-02-26T02:03:51;16.10;;;11.30;;
31652;SDS011;18261;53.648;9.910;2024-02-26T02:06:17;14.73;;;10.57;;
31652;SDS011;18261;53.648;9.910;2024-02-26T02:08:44;16.08;;;11.38;;
31652;SDS011;18261;53.648;9.910;2024-02-26T02:11:10;13.50;;;9.77;;
31652;SDS011;18261;53.648;9.910;2024-02-26T02:13:36;14.05;;;9.50;;
31652;SDS011;18261;53.648;9.910;2024-02-26T02:16:03;15.45;;;10.77;;
31652;SDS011;18261;53.648;9.910;2024-02-26T02:18:29;13.82;;;8.70;;
31652;SDS011;18261;53.648;9.910;2024-02-26T02:20:55;14.68;;;9.73;;
31652;SDS011;18261;53.648;9.910;2024-02-26T02:23:24;13.20;;;9.32;;
31652;SDS011;18261;53.648;9.910;2024-02-26T02:25:50;16.17;;;11.48;;
31652;SDS011;18261;53.648;9.910;2024-02-26T02:28:16;15.32;;;10.75;;
31652;SDS011;18261;53.648;9.910;2024-02-26T02:30:42;18.27;;;11.15;;
31652;SDS011;18261;53.648;9.910;2024-02-26T02:33:08;17.05;;;11.20;;
31652;SDS011;18261;53.648;9.910;2024-02-26T02:35:36;17.05;;;11.63;;
31652;SDS011;18261;53.648;9.910;2024-02-26T02:38:02;17.58;;;11.88;;
31652;SDS011;18261;53.648;9.910;2024-02-26T02:40:29;17.05;;;11.40;;
31652;SDS011;18261;53.648;9.910;2024-02-26T02:42:55;15.02;;;11.02;;
31652;SDS011;18261;53.648;9.910;2024-02-26T02:45:21;16.33;;;11.48;;
31652;SDS011;18261;53.648;9.910;2024-02-26T02:47:50;16.42;;;11.07;;
31652;SDS011;18261;53.648;9.910;2024-02-26T02:50:16;17.85;;;11.65;;
31652;SDS011;18261;53.648;9.910;2024-02-26T02:52:42;21.45;;;12.82;;
31652;SDS011;18261;53.648;9.910;2024-02-26T02:55:08;18.33;;;12.05;;
31652;SDS011;18261;53.648;9.910;2024-02-26T02:57:34;17.42;;;11.85;;
31652;SDS011;18261;53.648;9.910;2024-02-26T03:00:06;17.02;;;11.68;;
31652;SDS011;18261;53.648;9.910;2024-02-26T03:02:32;16.55;;;11.15;;
31652;SDS011;18261;53.648;9.910;2024-02-26T03:05:00;16.52;;;11.38;;
31652;SDS011;18261;53.648;9.910;2024-02-26T03:07:26;17.30;;;11.77;;
31652;SDS011;18261;53.648;9.910;2024-02-26T03:09:52;17.02;;;11.63;;
31652;SDS011;18261;53.648;9.910;2024-02-26T03:12:18;19.08;;;12.75;;
31652;SDS011;18261;53.648;9.910;2024-02-26T03:14:44;22.45;;;14.25;;
31652;SDS011;18261;53.648;9.910;2024-02-26T03:17:10;22.58;;;14.40;;
31652;SDS011;18261;53.648;9.910;2024-02-26T03:19:36;21.83;;;14.40;;
31652;SDS011;18261;53.648;9.910;2024-02-26T03:22:02;20.85;;;13.18;;
31652;SDS011;18261;53.648;9.910;2024-02-26T03:24:28;23.33;;;14.70;;
31652;SDS011;18261;53.648;9.910;2024-02-26T03:26:54;23.63;;;13.90;;
31652;SDS011;18261;53.648;9.910;2024-02-26T03:29:20;22.27;;;14.43;;
31652;SDS011;18261;53.648;9.910;2024-02-26T03:31:46;21.63;;;15.45;;
31652;SDS011;18261;53.648;9.910;2024-02-26T03:34:12;22.02;;;15.07;;
31652;SDS011;18261;53.648;9.910;2024-02-26T03:36:39;25.75;;;17.20;;
31652;SDS011;18261;53.648;9.910;2024-02-26T03:39:05;26.75;;;16.40;;
31652;SDS011;18261;53.648;9.910;2024-02-26T03:41:33;21.83;;;15.18;;
31652;SDS011;18261;53.648;9.910;2024-02-26T03:43:59;21.52;;;14.52;;
31652;SDS011;18261;53.648;9.910;2024-02-26T03:46:25;20.17;;;14.00;;
31652;SDS011;18261;53.648;9.910;2024-02-26T03:48:51;26.70;;;16.02;;
31652;SDS011;18261;53.648;9.910;2024-02-26T03:51:17;21.10;;;14.55;;
31652;SDS011;18261;53.648;9.910;2024-02-26T03:53:43;26.13;;;16.40;;
31652;SDS011;18261;53.648;9.910;2024-02-26T03:56:09;31.30;;;18.58;;
31652;SDS011;18261;53.648;9.910;2024-02-26T03:58:36;206.70;;;72.10;;
31652;SDS011;18261;53.648;9.910;2024-02-26T04:01:02;75.32;;;31.73;;
31652;SDS011;18261;53.648;9.910;2024-02-26T04:03:28;35.65;;;19.75;;
31652;SDS011;18261;53.648;9.910;2024-02-26T04:05:54;30.67;;;19.45;;
31652;SDS011;18261;53.648;9.910;2024-02-26T04:08:20;27.42;;;17.27;;
31652;SDS011;18261;53.648;9.910;2024-02-26T04:10:47;27.73;;;16.73;;
31652;SDS011;18261;53.648;9.910;2024-02-26T04:13:13;23.15;;;15.40;;
31652;SDS011;18261;53.648;9.910;2024-02-26T04:15:39;25.58;;;16.63;;
31652;SDS011;18261;53.648;9.910;2024-02-26T04:18:05;23.67;;;15.45;;
31652;SDS011;18261;53.648;9.910;2024-02-26T04:20:31;24.70;;;16.80;;
31652;SDS011;18261;53.648;9.910;2024-02-26T04:22:57;31.98;;;18.67;;
31652;SDS011;18261;53.648;9.910;2024-02-26T04:25:23;30.27;;;18.95;;
31652;SDS011;18261;53.648;9.910;2024-02-26T04:27:49;29.50;;;17.83;;
31652;SDS011;18261;53.648;9.910;2024-02-26T04:30:15;33.40;;;19.02;;
31652;SDS011;18261;53.648;9.910;2024-02-26T04:32:42;28.83;;;17.90;;
31652;SDS011;18261;53.648;9.910;2024-02-26T04:35:09;25.17;;;16.60;;
31652;SDS011;18261;53.648;9.910;2024-02-26T04:37:35;27.20;;;16.35;;
31652;SDS011;18261;53.648;9.910;2024-02-26T04:40:01;26.13;;;16.33;;
31652;SDS011;18261;53.648;9.910;2024-02-26T04:42:27;29.55;;;16.50;;
31652;SDS011;18261;53.648;9.910;2024-02-26T04:44:54;29.65;;;18.58;;
31652;SDS011;18261;53.648;9.910;2024-02-26T04:47:20;28.02;;;18.35;;
31652;SDS011;18261;53.648;9.910;2024-02-26T04:49:47;29.10;;;18.33;;
31652;SDS011;18261;53.648;9.910;2024-02-26T04:52:13;28.25;;;18.38;;
31652;SDS011;18261;53.648;9.910;2024-02-26T04:54:39;26.42;;;17.30;;
31652;SDS011;18261;53.648;9.910;2024-02-26T04:57:05;30.25;;;18.45;;
31652;SDS011;18261;53.648;9.910;2024-02-26T04:59:31;28.83;;;18.45;;
31652;SDS011;18261;53.648;9.910;2024-02-26T05:01:57;26.90;;;18.00;;
31652;SDS011;18261;53.648;9.910;2024-02-26T05:04:23;30.75;;;18.05;;
31652;SDS011;18261;53.648;9.910;2024-02-26T05:06:49;30.50;;;18.65;;
31652;SDS011;18261;53.648;9.910;2024-02-26T05:09:15;27.38;;;17.23;;
31652;SDS011;18261;53.648;9.910;2024-02-26T05:11:41;28.75;;;17.50;;
31652;SDS011;18261;53.648;9.910;2024-02-26T05:14:07;26.88;;;17.40;;
31652;SDS011;18261;53.648;9.910;2024-02-26T05:16:33;28.58;;;18.70;;
31652;SDS011;18261;53.648;9.910;2024-02-26T05:18:59;27.75;;;17.80;;
31652;SDS011;18261;53.648;9.910;2024-02-26T05:21:25;31.35;;;18.80;;
31652;SDS011;18261;53.648;9.910;2024-02-26T05:23:51;29.33;;;18.80;;
31652;SDS011;18261;53.648;9.910;2024-02-26T05:26:21;33.20;;;19.92;;
31652;SDS011;18261;53.648;9.910;2024-02-26T05:28:47;30.73;;;19.05;;
31652;SDS011;18261;53.648;9.910;2024-02-26T05:31:14;31.13;;;19.55;;
31652;SDS011;18261;53.648;9.910;2024-02-26T05:33:40;32.67;;;18.70;;
31652;SDS011;18261;53.648;9.910;2024-02-26T05:36:06;32.75;;;19.92;;
31652;SDS011;18261;53.648;9.910;2024-02-26T05:38:32;31.13;;;19.08;;
31652;SDS011;18261;53.648;9.910;2024-02-26T05:41:01;32.72;;;17.77;;
31652;SDS011;18261;53.648;9.910;2024-02-26T05:43:27;32.80;;;18.67;;
31652;SDS011;18261;53.648;9.910;2024-02-26T05:45:53;34.90;;;19.85;;
31652;SDS011;18261;53.648;9.910;2024-02-26T05:48:19;30.05;;;17.33;;
31652;SDS011;18261;53.648;9.910;2024-02-26T05:50:46;26.58;;;16.02;;
31652;SDS011;18261;53.648;9.910;2024-02-26T05:53:12;26.52;;;16.35;;
31652;SDS011;18261;53.648;9.910;2024-02-26T05:55:38;28.23;;;17.58;;
31652;SDS011;18261;53.648;9.910;2024-02-26T05:58:04;28.70;;;18.77;;
31652;SDS011;18261;53.648;9.910;2024-02-26T06:00:30;30.75;;;20.02;;
31652;SDS011;18261;53.648;9.910;2024-02-26T06:02:56;35.00;;;20.42;;
31652;SDS011;18261;53.648;9.910;2024-02-26T06:05:22;33.50;;;20.95;;
31652;SDS011;18261;53.648;9.910;2024-02-26T06:07:48;39.17;;;21.42;;
31652;SDS011;18261;53.648;9.910;2024-02-26T06:10:14;43.90;;;24.17;;
31652;SDS011;18261;53.648;9.910;2024-02-26T06:12:41;41.80;;;25.10;;
31652;SDS011;18261;53.648;9.910;2024-02-26T06:15:07;47.38;;;26.63;;
31652;SDS011;18261;53.648;9.910;2024-02-26T06:17:34;46.90;;;25.88;;
31652;SDS011;18261;53.648;9.910;2024-02-26T06:20:00;48.67;;;26.80;;
31652;SDS011;18261;53.648;9.910;2024-02-26T06:22:26;50.67;;;28.10;;
31652;SDS011;18261;53.648;9.910;2024-02-26T06:24:52;50.38;;;28.25;;
31652;SDS011;18261;53.648;9.910;2024-02-26T06:27:18;50.90;;;25.83;;
31652;SDS011;18261;53.648;9.910;2024-02-26T06:29:46;48.47;;;27.05;;
31652;SDS011;18261;53.648;9.910;2024-02-26T06:32:13;55.65;;;27.23;;
31652;SDS011;18261;53.648;9.910;2024-02-26T06:34:39;56.50;;;28.42;;
31652;SDS011;18261;53.648;9.910;2024-02-26T06:37:06;59.75;;;29.40;;
31652;SDS011;18261;53.648;9.910;2024-02-26T06:39:32;76.97;;;28.40;;
31652;SDS011;18261;53.648;9.910;2024-02-26T06:41:58;57.40;;;28.08;;
31652;SDS011;18261;53.648;9.910;2024-02-26T06:44:27;64.78;;;30.60;;
31652;SDS011;18261;53.648;9.910;2024-02-26T06:46:59;58.10;;;28.50;;
31652;SDS011;18261;53.648;9.910;2024-02-26T06:49:26;59.22;;;29.65;;
31652;SDS011;18261;53.648;9.910;2024-02-26T06:51:52;65.90;;;30.15;;
31652;SDS011;18261;53.648;9.910;2024-02-26T06:54:18;63.63;;;30.35;;
31652;SDS011;18261;53.648;9.910;2024-02-26T06:56:44;64.60;;;31.67;;
31652;SDS011;18261;53.648;9.910;2024-02-26T06:59:10;94.57;;;33.50;;
31652;SDS011;18261;53.648;9.910;2024-02-26T07:01:36;62.25;;;30.38;;
31652;SDS011;18261;53.648;9.910;2024-02-26T07:04:02;69.45;;;31.27;;
31652;SDS011;18261;53.648;9.910;2024-02-26T07:06:28;54.85;;;28.92;;
31652;SDS011;18261;53.648;9.910;2024-02-26T07:08:54;54.95;;;29.15;;
31652;SDS011;18261;53.648;9.910;2024-02-26T07:11:20;54.58;;;30.13;;
31652;SDS011;18261;53.648;9.910;2024-02-26T07:13:46;58.63;;;31.30;;
31652;SDS011;18261;53.648;9.910;2024-02-26T07:16:12;67.22;;;33.90;;
31652;SDS011;18261;53.648;9.910;2024-02-26T07:18:41;66.90;;;33.40;;
31652;SDS011;18261;53.648;9.910;2024-02-26T07:21:11;75.97;;;35.30;;
31652;SDS011;18261;53.648;9.910;2024-02-26T07:23:37;83.32;;;38.00;;
31652;SDS011;18261;53.648;9.910;2024-02-26T07:26:03;71.75;;;33.58;;
31652;SDS011;18261;53.648;9.910;2024-02-26T07:28:29;98.70;;;41.42;;
31652;SDS011;18261;53.648;9.910;2024-02-26T07:30:55;82.05;;;37.55;;
31652;SDS011;18261;53.648;9.910;2024-02-26T07:33:21;85.80;;;38.22;;
31652;SDS011;18261;53.648;9.910;2024-02-26T07:35:47;100.05;;;42.60;;
31652;SDS011;18261;53.648;9.910;2024-02-26T07:38:13;96.25;;;41.25;;
31652;SDS011;18261;53.648;9.910;2024-02-26T07:40:40;83.95;;;37.40;;
31652;SDS011;18261;53.648;9.910;2024-02-26T07:43:06;79.22;;;35.47;;
31652;SDS011;18261;53.648;9.910;2024-02-26T07:45:32;88.97;;;38.75;;
31652;SDS011;18261;53.648;9.910;2024-02-26T07:47:58;93.25;;;39.90;;
31652;SDS011;18261;53.648;9.910;2024-02-26T07:50:24;64.88;;;31.48;;
31652;SDS011;18261;53.648;9.910;2024-02-26T07:52:50;66.88;;;31.55;;
31652;SDS011;18261;53.648;9.910;2024-02-26T07:55:17;54.72;;;28.50;;
31652;SDS011;18261;53.648;9.910;2024-02-26T07:57:44;62.78;;;31.00;;
31652;SDS011;18261;53.648;9.910;2024-02-26T08:00:10;63.45;;;29.25;;
31652;SDS011;18261;53.648;9.910;2024-02-26T08:02:36;60.10;;;28.95;;
31652;SDS011;18261;53.648;9.910;2024-02-26T08:05:02;60.80;;;29.08;;
31652;SDS011;18261;53.648;9.910;2024-02-26T08:07:29;70.35;;;31.88;;
31652;SDS011;18261;53.648;9.910;2024-02-26T08:09:55;65.85;;;30.55;;
31652;SDS011;18261;53.648;9.910;2024-02-26T08:12:22;63.05;;;29.08;;
31652;SDS011;18261;53.648;9.910;2024-02-26T08:14:48;62.35;;;29.42;;
31652;SDS011;18261;53.648;9.910;2024-02-26T08:17:14;71.55;;;34.67;;
31652;SDS011;18261;53.648;9.910;2024-02-26T08:19:40;70.43;;;30.05;;
31652;SDS011;18261;53.648;9.910;2024-02-26T08:22:06;67.63;;;31.92;;
31652;SDS011;18261;53.648;9.910;2024-02-26T08:24:32;67.80;;;30.05;;
31652;SDS011;18261;53.648;9.910;2024-02-26T08:26:58;65.72;;;31.02;;
31652;SDS011;18261;53.648;9.910;2024-02-26T08:29:24;65.22;;;31.13;;
31652;SDS011;18261;53.648;9.910;2024-02-26T08:31:50;66.25;;;30.92;;
31652;SDS011;18261;53.648;9.910;2024-02-26T08:34:16;64.38;;;28.88;;
31652;SDS011;18261;53.648;9.910;2024-02-26T08:36:41;64.03;;;31.30;;
31652;SDS011;18261;53.648;9.910;2024-02-26T08:39:08;61.50;;;30.27;;
31652;SDS011;18261;53.648;9.910;2024-02-26T08:41:34;64.95;;;29.58;;
31652;SDS011;18261;53.648;9.910;2024-02-26T08:44:00;57.22;;;29.67;;
31652;SDS011;18261;53.648;9.910;2024-02-26T08:46:26;58.25;;;29.88;;
31652;SDS011;18261;53.648;9.910;2024-02-26T08:48:52;56.35;;;28.83;;
31652;SDS011;18261;53.648;9.910;2024-02-26T08:51:18;67.03;;;30.95;;
31652;SDS011;18261;53.648;9.910;2024-02-26T08:53:44;60.83;;;30.52;;
31652;SDS011;18261;53.648;9.910;2024-02-26T08:56:10;60.30;;;30.30;;
31652;SDS011;18261;53.648;9.910;2024-02-26T08:58:41;62.85;;;30.13;;
31652;SDS011;18261;53.648;9.910;2024-02-26T09:01:07;58.03;;;29.48;;
31652;SDS011;18261;53.648;9.910;2024-02-26T09:03:33;52.83;;;27.92;;
31652;SDS011;18261;53.648;9.910;2024-02-26T09:05:59;55.25;;;29.05;;
31652;SDS011;18261;53.648;9.910;2024-02-26T09:08:25;54.25;;;27.88;;
31652;SDS011;18261;53.648;9.910;2024-02-26T09:10:51;57.10;;;30.23;;
31652;SDS011;18261;53.648;9.910;2024-02-26T09:13:18;55.10;;;28.77;;
31652;SDS011;18261;53.648;9.910;2024-02-26T09:15:44;54.35;;;28.60;;
31652;SDS011;18261;53.648;9.910;2024-02-26T09:18:10;56.70;;;30.27;;
31652;SDS011;18261;53.648;9.910;2024-02-26T09:20:36;54.75;;;28.60;;
31652;SDS011;18261;53.648;9.910;2024-02-26T09:23:02;51.22;;;28.75;;
31652;SDS011;18261;53.648;9.910;2024-02-26T09:25:28;58.17;;;28.63;;
31652;SDS011;18261;53.648;9.910;2024-02-26T09:27:54;56.42;;;31.10;;
31652;SDS011;18261;53.648;9.910;2024-02-26T09:30:20;55.10;;;29.73;;
31652;SDS011;18261;53.648;9.910;2024-02-26T09:32:46;54.80;;;30.30;;
31652;SDS011;18261;53.648;9.910;2024-02-26T09:35:15;51.65;;;28.05;;
31652;SDS011;18261;53.648;9.910;2024-02-26T09:37:41;53.47;;;29.52;;
31652;SDS011;18261;53.648;9.910;2024-02-26T09:40:09;53.15;;;28.73;;
31652;SDS011;18261;53.648;9.910;2024-02-26T09:42:37;53.38;;;29.08;;
31652;SDS011;18261;53.648;9.910;2024-02-26T09:45:05;57.70;;;29.27;;
31652;SDS011;18261;53.648;9.910;2024-02-26T09:47:33;54.97;;;30.35;;
31652;SDS011;18261;53.648;9.910;2024-02-26T09:50:00;55.83;;;30.52;;
31652;SDS011;18261;53.648;9.910;2024-02-26T09:52:28;55.88;;;30.80;;
31652;SDS011;18261;53.648;9.910;2024-02-26T09:54:54;62.80;;;33.53;;
31652;SDS011;18261;53.648;9.910;2024-02-26T09:57:20;54.47;;;28.92;;
31652;SDS011;18261;53.648;9.910;2024-02-26T09:59:49;55.60;;;29.45;;
31652;SDS011;18261;53.648;9.910;2024-02-26T10:02:16;54.72;;;29.80;;
31652;SDS011;18261;53.648;9.910;2024-02-26T10:04:43;56.00;;;29.42;;
31652;SDS011;18261;53.648;9.910;2024-02-26T10:07:11;55.60;;;29.58;;
31652;SDS011;18261;53.648;9.910;2024-02-26T10:09:37;56.72;;;29.55;;
31652;SDS011;18261;53.648;9.910;2024-02-26T10:12:04;58.97;;;30.90;;
31652;SDS011;18261;53.648;9.910;2024-02-26T10:14:32;60.20;;;32.25;;
31652;SDS011;18261;53.648;9.910;2024-02-26T10:16:58;56.40;;;30.17;;
31652;SDS011;18261;53.648;9.910;2024-02-26T10:19:28;57.22;;;30.58;;
31652;SDS011;18261;53.648;9.910;2024-02-26T10:21:58;53.10;;;29.20;;
31652;SDS011;18261;53.648;9.910;2024-02-26T10:24:25;58.10;;;29.73;;
31652;SDS011;18261;53.648;9.910;2024-02-26T10:26:54;55.58;;;31.10;;
31652;SDS011;18261;53.648;9.910;2024-02-26T10:29:20;52.35;;;29.45;;
31652;SDS011;18261;53.648;9.910;2024-02-26T10:31:46;53.63;;;28.42;;
31652;SDS011;18261;53.648;9.910;2024-02-26T10:34:14;50.35;;;28.77;;
31652;SDS011;18261;53.648;9.910;2024-02-26T10:36:41;51.42;;;29.83;;
31652;SDS011;18261;53.648;9.910;2024-02-26T10:39:07;50.45;;;28.65;;
31652;SDS011;18261;53.648;9.910;2024-02-26T10:41:33;46.88;;;27.38;;
31652;SDS011;18261;53.648;9.910;2024-02-26T10:43:59;49.53;;;28.17;;
31652;SDS011;18261;53.648;9.910;2024-02-26T10:46:25;49.60;;;27.83;;
31652;SDS011;18261;53.648;9.910;2024-02-26T10:48:52;50.30;;;29.48;;
31652;SDS011;18261;53.648;9.910;2024-02-26T10:51:20;47.88;;;27.70;;
31652;SDS011;18261;53.648;9.910;2024-02-26T10:53:46;46.92;;;27.52;;
31652;SDS011;18261;53.648;9.910;2024-02-26T10:56:13;46.33;;;27.20;;
31652;SDS011;18261;53.648;9.910;2024-02-26T10:58:40;42.42;;;25.67;;
31652;SDS011;18261;53.648;9.910;2024-02-26T11:01:06;47.70;;;24.88;;
31652;SDS011;18261;53.648;9.910;2024-02-26T11:03:33;39.88;;;24.45;;
31652;SDS011;18261;53.648;9.910;2024-02-26T11:05:59;41.50;;;24.70;;
31652;SDS011;18261;53.648;9.910;2024-02-26T11:08:26;35.45;;;22.10;;
31652;SDS011;18261;53.648;9.910;2024-02-26T11:10:53;38.22;;;23.02;;
31652;SDS011;18261;53.648;9.910;2024-02-26T11:13:21;31.25;;;20.95;;
31652;SDS011;18261;53.648;9.910;2024-02-26T11:15:47;33.90;;;21.17;;
31652;SDS011;18261;53.648;9.910;2024-02-26T11:18:16;32.75;;;21.35;;
31652;SDS011;18261;53.648;9.910;2024-02-26T11:20:46;33.58;;;21.52;;
31652;SDS011;18261;53.648;9.910;2024-02-26T11:23:13;30.77;;;20.35;;
31652;SDS011;18261;53.648;9.910;2024-02-26T11:25:40;33.33;;;21.02;;
31652;SDS011;18261;53.648;9.910;2024-02-26T11:28:08;33.83;;;21.38;;
31652;SDS011;18261;53.648;9.910;2024-02-26T11:30:35;29.08;;;18.70;;
31652;SDS011;18261;53.648;9.910;2024-02-26T11:33:04;29.75;;;19.27;;
31652;SDS011;18261;53.648;9.910;2024-02-26T11:35:30;27.20;;;18.58;;
31652;SDS011;18261;53.648;9.910;2024-02-26T11:37:56;26.92;;;18.23;;
31652;SDS011;18261;53.648;9.910;2024-02-26T11:40:26;26.58;;;17.00;;
31652;SDS011;18261;53.648;9.910;2024-02-26T11:42:52;23.90;;;16.77;;
31652;SDS011;18261;53.648;9.910;2024-02-26T11:48:03;25.58;;;15.98;;
31652;SDS011;18261;53.648;9.910;2024-02-26T11:50:32;26.17;;;17.50;;
31652;SDS011;18261;53.648;9.910;2024-02-26T11:55:44;27.45;;;17.55;;
31652;SDS011;18261;53.648;9.910;2024-02-26T11:58:10;26.60;;;17.52;;
31652;SDS011;18261;53.648;9.910;2024-02-26T12:00:36;29.92;;;18.98;;
31652;SDS011;18261;53.648;9.910;2024-02-26T12:03:02;26.70;;;17.50;;
31652;SDS011;18261;53.648;9.910;2024-02-26T12:05:32;26.63;;;18.85;;
31652;SDS011;18261;53.648;9.910;2024-02-26T12:07:59;30.40;;;19.60;;
31652;SDS011;18261;53.648;9.910;2024-02-26T12:13:14;31.70;;;20.83;;
31652;SDS011;18261;53.648;9.910;2024-02-26T12:18:05;27.15;;;18.45;;
31652;SDS011;18261;53.648;9.910;2024-02-26T12:20:32;30.33;;;19.38;;
31652;SDS011;18261;53.648;9.910;2024-02-26T12:22:58;30.20;;;18.58;;
31652;SDS011;18261;53.648;9.910;2024-02-26T12:25:25;27.13;;;17.75;;
31652;SDS011;18261;53.648;9.910;2024-02-26T12:27:55;31.95;;;21.00;;
31652;SDS011;18261;53.648;9.910;2024-02-26T12:30:21;27.33;;;17.88;;
31652;SDS011;18261;53.648;9.910;2024-02-26T12:32:48;29.08;;;18.05;;
31652;SDS011;18261;53.648;9.910;2024-02-26T12:35:14;26.35;;;18.27;;
31652;SDS011;18261;53.648;9.910;2024-02-26T12:37:41;30.83;;;19.50;;
31652;SDS011;18261;53.648;9.910;2024-02-26T12:40:09;27.13;;;18.15;;
31652;SDS011;18261;53.648;9.910;2024-02-26T12:42:35;26.90;;;18.35;;
31652;SDS011;18261;53.648;9.910;2024-02-26T12:45:14;26.58;;;17.88;;
31652;SDS011;18261;53.648;9.910;2024-02-26T12:47:41;31.75;;;18.15;;
31652;SDS011;18261;53.648;9.910;2024-02-26T12:50:08;29.00;;;18.42;;
31652;SDS011;18261;53.648;9.910;2024-02-26T12:52:35;28.30;;;17.83;;
31652;SDS011;18261;53.648;9.910;2024-02-26T12:55:01;32.88;;;18.85;;
31652;SDS011;18261;53.648;9.910;2024-02-26T12:57:29;28.02;;;17.30;;
31652;SDS011;18261;53.648;9.910;2024-02-26T12:59:55;30.75;;;19.10;;
31652;SDS011;18261;53.648;9.910;2024-02-26T13:02:21;28.13;;;18.05;;
31652;SDS011;18261;53.648;9.910;2024-02-26T13:04:47;29.35;;;18.48;;
31652;SDS011;18261;53.648;9.910;2024-02-26T13:07:13;30.23;;;18.52;;
31652;SDS011;18261;53.648;9.910;2024-02-26T13:09:39;32.10;;;18.00;;
31652;SDS011;18261;53.648;9.910;2024-02-26T13:12:06;31.52;;;19.05;;
31652;SDS011;18261;53.648;9.910;2024-02-26T13:14:32;30.33;;;19.25;;
31652;SDS011;18261;53.648;9.910;2024-02-26T13:17:01;32.75;;;20.38;;
31652;SDS011;18261;53.648;9.910;2024-02-26T13:19:27;32.67;;;20.17;;
31652;SDS011;18261;53.648;9.910;2024-02-26T13:21:53;34.40;;;19.85;;
31652;SDS011;18261;53.648;9.910;2024-02-26T13:24:20;32.95;;;20.25;;
31652;SDS011;18261;53.648;9.910;2024-02-26T13:26:47;31.23;;;19.23;;
31652;SDS011;18261;53.648;9.910;2024-02-26T13:29:17;31.70;;;18.98;;
31652;SDS011;18261;53.648;9.910;2024-02-26T13:31:43;34.28;;;18.55;;
31652;SDS011;18261;53.648;9.910;2024-02-26T13:34:09;30.13;;;18.38;;
31652;SDS011;18261;53.648;9.910;2024-02-26T13:36:35;30.30;;;19.13;;
31652;SDS011;18261;53.648;9.910;2024-02-26T13:39:01;34.40;;;21.35;;
31652;SDS011;18261;53.648;9.910;2024-02-26T13:41:29;36.00;;;21.77;;
31652;SDS011;18261;53.648;9.910;2024-02-26T13:43:55;33.80;;;22.17;;
31652;SDS011;18261;53.648;9.910;2024-02-26T13:46:22;33.35;;;21.00;;
31652;SDS011;18261;53.648;9.910;2024-02-26T13:48:49;36.28;;;21.20;;
31652;SDS011;18261;53.648;9.910;2024-02-26T13:51:15;32.85;;;21.20;;
31652;SDS011;18261;53.648;9.910;2024-02-26T13:53:42;31.20;;;19.65;;
31652;SDS011;18261;53.648;9.910;2024-02-26T13:56:08;34.35;;;21.40;;
31652;SDS011;18261;53.648;9.910;2024-02-26T13:58:35;32.13;;;19.58;;
31652;SDS011;18261;53.648;9.910;2024-02-26T14:01:02;33.03;;;19.67;;
31652;SDS011;18261;53.648;9.910;2024-02-26T14:03:28;35.28;;;21.17;;
31652;SDS011;18261;53.648;9.910;2024-02-26T14:05:54;34.15;;;20.67;;
31652;SDS011;18261;53.648;9.910;2024-02-26T14:08:21;33.58;;;20.73;;
31652;SDS011;18261;53.648;9.910;2024-02-26T14:10:48;34.40;;;20.90;;
31652;SDS011;18261;53.648;9.910;2024-02-26T14:13:14;30.80;;;20.70;;
31652;SDS011;18261;53.648;9.910;2024-02-26T14:15:40;34.55;;;21.02;;
31652;SDS011;18261;53.648;9.910;2024-02-26T14:18:06;34.47;;;21.58;;
31652;SDS011;18261;53.648;9.910;2024-02-26T14:20:32;33.92;;;21.17;;
31652;SDS011;18261;53.648;9.910;2024-02-26T14:22:58;35.33;;;21.77;;
31652;SDS011;18261;53.648;9.910;2024-02-26T14:25:25;36.53;;;22.55;;
31652;SDS011;18261;53.648;9.910;2024-02-26T14:27:51;32.80;;;21.30;;
31652;SDS011;18261;53.648;9.910;2024-02-26T14:30:17;29.88;;;20.45;;